Time;durP1;ratioP1;P1;durP2;ratioP2;P2;SDS_P1;SDS_P2;PMS_P1;PMS_P2;Temp;Humidity;BMP_temperature;BMP_pressure;BME280_temperature;BME280_humidity;BME280_pressure;Samples;Min_cycle;Max_cycle;Signal;HPM_P1;HPM_P2
2022/10/03 00:01:20;;;;;;;10.45;9.00;;;18.50;80.10;;;;;;10756569;33;20333;-75
2022/10/03 00:07:31;;;;;;;12.93;9.32;;;18.50;80.20;;;;;;10754959;33;20020;-75
2022/10/03 00:13:54;;;;;;;12.95;10.48;;;18.40;80.50;;;;;;10756316;33;20048;-75
2022/10/03 00:20:24;;;;;;;10.88;8.95;;;18.40;80.50;;;;;;10755980;33;20021;-75
2022/10/03 00:26:46;;;;;;;13.73;10.95;;;18.40;80.60;;;;;;10751163;33;20055;-76
2022/10/03 00:32:53;;;;;;;12.52;10.80;;;18.40;80.80;;;;;;10757007;33;20016;-75
2022/10/03 00:39:19;;;;;;;12.13;10.10;;;18.30;80.90;;;;;;10752345;33;20020;-75
2022/10/03 00:45:39;;;;;;;12.95;10.98;;;18.30;81.00;;;;;;10742997;33;20020;-75
2022/10/03 00:52:16;;;;;;;13.27;11.57;;;18.40;81.00;;;;;;10759838;33;20063;-76
2022/10/03 00:58:33;;;;;;;13.55;10.25;;;18.30;81.10;;;;;;10758200;33;20039;-75
2022/10/03 01:04:52;;;;;;;18.25;11.23;;;18.40;81.10;;;;;;10761759;33;20037;-75
2022/10/03 01:11:16;;;;;;;12.88;10.60;;;18.40;81.20;;;;;;10762211;33;20029;-75
2022/10/03 01:17:48;;;;;;;17.83;13.35;;;18.40;81.10;;;;;;10758027;33;20013;-76
2022/10/03 01:24:32;;;;;;;16.10;11.75;;;18.40;81.30;;;;;;10757325;33;20059;-75
2022/10/03 01:30:49;;;;;;;17.37;13.95;;;18.30;81.30;;;;;;10748114;33;20021;-75
2022/10/03 01:36:53;;;;;;;13.35;11.10;;;18.30;81.50;;;;;;10761007;33;20056;-75
2022/10/03 01:43:19;;;;;;;17.92;14.98;;;18.30;81.60;;;;;;10760651;33;20063;-75
2022/10/03 01:49:36;;;;;;;12.95;11.10;;;18.30;81.70;;;;;;10760293;33;20349;-75
2022/10/03 01:56:29;;;;;;;15.70;12.90;;;18.30;81.60;;;;;;10760391;33;20025;-75
2022/10/03 02:02:45;;;;;;;17.40;13.57;;;18.30;81.60;;;;;;10682703;33;20057;-75
2022/10/03 02:09:18;;;;;;;19.02;14.60;;;18.30;81.90;;;;;;10683756;33;20052;-75
2022/10/03 02:15:53;;;;;;;21.62;16.05;;;18.20;81.90;;;;;;10679464;33;20392;-75
2022/10/03 02:21:57;;;;;;;17.12;13.65;;;18.30;81.80;;;;;;10680561;33;20052;-75
2022/10/03 02:28:17;;;;;;;23.60;16.15;;;18.30;81.70;;;;;;10682800;33;20033;-75
2022/10/03 02:34:51;;;;;;;17.27;14.48;;;18.30;81.60;;;;;;10699670;33;20400;-75
2022/10/03 02:40:56;;;;;;;16.83;14.87;;;18.20;81.50;;;;;;10754613;33;20039;-74
2022/10/03 02:47:07;;;;;;;19.85;13.62;;;18.20;81.50;;;;;;10758553;33;20051;-75
2022/10/03 02:53:43;;;;;;;22.40;18.40;;;18.20;81.60;;;;;;10755292;33;20033;-74
2022/10/03 03:00:03;;;;;;;20.15;16.73;;;18.00;81.80;;;;;;10679719;33;20461;-75
2022/10/03 03:06:07;;;;;;;16.45;14.25;;;18.00;81.90;;;;;;10677466;33;20118;-75
2022/10/03 03:12:43;;;;;;;19.98;15.73;;;18.00;81.90;;;;;;10680731;33;20025;-75
2022/10/03 03:19:03;;;;;;;22.98;16.48;;;18.00;81.90;;;;;;10680937;33;20342;-75
2022/10/03 03:25:24;;;;;;;19.52;16.00;;;18.00;81.90;;;;;;10680516;33;20056;-75
2022/10/03 03:31:38;;;;;;;18.75;16.45;;;17.90;81.90;;;;;;10681851;33;20025;-75
2022/10/03 03:38:01;;;;;;;20.35;17.17;;;17.90;81.90;;;;;;10752991;33;20345;-75
2022/10/03 03:44:26;;;;;;;17.55;13.88;;;17.90;82.00;;;;;;10756724;33;20024;-75
2022/10/03 03:50:56;;;;;;;18.23;15.70;;;17.80;82.00;;;;;;10756656;33;20043;-75
2022/10/03 03:57:14;;;;;;;15.35;13.77;;;17.80;82.00;;;;;;10743564;33;20419;-75
2022/10/03 04:03:58;;;;;;;17.85;14.52;;;17.80;82.00;;;;;;10756429;33;20547;-75
2022/10/03 04:10:20;;;;;;;14.05;10.75;;;17.70;82.00;;;;;;10756202;33;20056;-75
2022/10/03 04:23:35;;;;;;;15.38;11.75;;;17.60;82.00;;;;;;10752797;33;20055;-75
2022/10/03 04:29:52;;;;;;;20.27;16.73;;;17.60;82.10;;;;;;10759095;33;20059;-75
2022/10/03 04:36:06;;;;;;;20.42;15.82;;;17.50;82.10;;;;;;10763014;33;20059;-75
2022/10/03 04:42:28;;;;;;;22.87;17.33;;;17.50;82.10;;;;;;10758989;33;20051;-75
2022/10/03 04:48:58;;;;;;;14.75;12.70;;;17.50;82.20;;;;;;10760774;33;20067;-75
2022/10/03 04:55:05;;;;;;;18.52;14.15;;;17.50;82.20;;;;;;10762235;33;20064;-74
2022/10/03 05:01:14;;;;;;;34.65;15.10;;;17.30;82.20;;;;;;10760535;33;20021;-74
2022/10/03 05:07:44;;;;;;;17.80;14.95;;;17.30;82.20;;;;;;10759493;33;20326;-74
2022/10/03 05:14:24;;;;;;;18.33;15.60;;;17.30;82.30;;;;;;10761594;33;20394;-74
2022/10/03 05:20:35;;;;;;;18.10;14.43;;;17.30;82.20;;;;;;10761473;33;20067;-74
2022/10/03 05:26:45;;;;;;;20.80;15.55;;;17.30;82.20;;;;;;10760326;33;20039;-75
2022/10/03 05:32:55;;;;;;;20.80;17.12;;;17.30;82.40;;;;;;10756752;33;20436;-75
2022/10/03 05:39:34;;;;;;;20.10;16.33;;;17.30;82.40;;;;;;10756248;33;20017;-75
2022/10/03 05:46:20;;;;;;;17.37;14.25;;;17.30;82.40;;;;;;10756290;33;20452;-75
2022/10/03 05:53:03;;;;;;;22.35;16.75;;;17.20;82.40;;;;;;10760349;33;20032;-75
2022/10/03 05:59:29;;;;;;;15.23;12.55;;;17.30;82.30;;;;;;10760102;33;20386;-75
2022/10/03 06:06:24;;;;;;;20.85;16.77;;;17.30;82.40;;;;;;10759724;33;20029;-75
2022/10/03 06:13:34;;;;;;;17.67;15.47;;;17.30;82.30;;;;;;10770467;27;20059;-75
2022/10/03 06:19:54;;;;;;;16.37;13.88;;;17.30;82.40;;;;;;10792000;33;20147;-75
2022/10/03 06:26:22;;;;;;;19.12;16.25;;;17.40;82.60;;;;;;10791064;33;20058;-75
2022/10/03 06:33:01;;;;;;;19.87;13.68;;;17.40;82.40;;;;;;10787668;33;20040;-75
2022/10/03 06:39:33;;;;;;;16.37;14.60;;;17.50;82.40;;;;;;10787649;33;20349;-75
2022/10/03 06:46:06;;;;;;;18.98;15.52;;;17.50;82.40;;;;;;10803425;32;20409;-75
2022/10/03 06:52:26;;;;;;;17.48;13.27;;;17.60;82.20;;;;;;10820382;32;20078;-75
2022/10/03 06:58:38;;;;;;;23.65;16.27;;;17.70;82.20;;;;;;10834034;32;20040;-75
2022/10/03 07:05:08;;;;;;;17.80;15.48;;;17.70;82.00;;;;;;10830111;32;20036;-75
2022/10/03 07:11:19;;;;;;;18.90;16.80;;;17.80;82.00;;;;;;10830338;32;20066;-75
2022/10/03 07:17:22;;;;;;;12.20;7.95;;;17.80;82.00;;;;;;10813298;33;20067;-75
2022/10/03 07:23:42;;;;;;;20.08;11.27;;;17.90;81.80;;;;;;10830485;32;20023;-75
2022/10/03 07:30:14;;;;;;;11.98;8.98;;;18.00;81.80;;;;;;10830448;32;20401;-74
2022/10/03 07:43:39;;;;;;;13.82;11.32;;;18.20;81.50;;;;;;10681102;33;20149;-74
2022/10/03 07:50:00;;;;;;;15.50;13.52;;;18.30;81.30;;;;;;10680094;33;20059;-74
2022/10/03 07:56:45;;;;;;;14.68;10.98;;;18.30;81.10;;;;;;10678456;33;20029;-74
2022/10/03 08:03:14;;;;;;;16.00;14.18;;;18.40;80.90;;;;;;10679475;33;20037;-75
2022/10/03 08:09:23;;;;;;;;;;;18.50;80.80;;;;;;10679999;33;20153;-74
2022/10/03 08:15:52;;;;;;;14.27;11.85;;;18.60;80.60;;;;;;10389720;33;10003144;-75
2022/10/03 08:22:01;;;;;;;16.00;12.27;;;18.70;80.50;;;;;;10829576;33;20024;-75
2022/10/03 08:28:21;;;;;;;16.53;10.90;;;18.80;80.40;;;;;;10829339;33;20112;-75
2022/10/03 08:34:38;;;;;;;14.35;10.50;;;18.80;80.10;;;;;;10829336;33;20016;-74
2022/10/03 08:40:46;;;;;;;15.45;11.45;;;18.90;80.00;;;;;;10825021;33;20032;-75
2022/10/03 08:47:01;;;;;;;14.77;10.65;;;19.00;79.80;;;;;;10828918;33;20393;-75
2022/10/03 08:53:36;;;;;;;12.55;10.32;;;19.10;79.60;;;;;;10796056;33;20067;-75
2022/10/03 09:00:17;;;;;;;14.50;11.27;;;19.20;79.50;;;;;;10792067;33;20025;-76
2022/10/03 09:06:43;;;;;;;17.27;14.20;;;19.30;79.30;;;;;;10606476;33;20033;-74
2022/10/03 09:12:57;;;;;;;11.00;8.45;;;19.30;78.90;;;;;;10609034;33;20042;-75
2022/10/03 09:19:51;;;;;;;12.00;10.27;;;19.30;78.80;;;;;;10610142;33;20060;-74
2022/10/03 09:26:14;;;;;;;14.20;11.65;;;19.40;78.60;;;;;;10602733;33;20034;-73
2022/10/03 09:32:49;;;;;;;7.32;6.15;;;19.50;78.50;;;;;;10613235;33;20037;-77
2022/10/03 09:39:06;;;;;;;12.60;10.10;;;19.60;78.40;;;;;;10628070;33;20204;-75
2022/10/03 09:45:10;;;;;;;11.93;9.18;;;19.80;78.10;;;;;;10797616;33;20028;-76
2022/10/03 09:51:15;;;;;;;13.55;10.48;;;19.90;77.90;;;;;;10797397;33;20024;-76
2022/10/03 09:57:37;;;;;;;16.33;10.25;;;20.00;77.50;;;;;;10796823;33;20028;-76
2022/10/03 10:03:45;;;;;;;11.15;7.90;;;20.10;77.10;;;;;;10796824;33;20025;-75
2022/10/03 10:10:25;;;;;;;10.93;8.05;;;20.30;76.60;;;;;;10792477;33;20154;-76
2022/10/03 10:16:40;;;;;;;11.23;7.87;;;20.40;76.20;;;;;;10772648;33;20032;-76
2022/10/03 10:23:10;;;;;;;10.77;7.87;;;20.50;76.10;;;;;;10792827;33;20063;-76
2022/10/03 10:29:40;;;;;;;8.73;6.62;;;20.70;75.30;;;;;;10796077;33;20440;-74
2022/10/03 10:36:05;;;;;;;9.18;6.60;;;20.80;74.70;;;;;;10795466;33;20432;-77
2022/10/03 10:42:29;;;;;;;11.60;7.65;;;21.00;74.60;;;;;;10796081;33;20028;-76
2022/10/03 10:49:06;;;;;;;9.60;7.45;;;21.30;74.20;;;;;;10794900;33;20028;-75
2022/10/03 10:55:46;;;;;;;7.70;5.20;;;21.60;73.70;;;;;;10790776;33;20021;-75
2022/10/03 11:02:07;;;;;;;;;;;21.80;73.30;;;;;;10782013;33;20024;-74
2022/10/03 11:08:27;;;;;;;7.60;5.80;;;22.00;72.40;;;;;;10794360;33;20242;-74
2022/10/03 11:15:00;;;;;;;10.55;8.40;;;22.10;71.90;;;;;;10794145;33;20021;-76
2022/10/03 11:21:34;;;;;;;7.68;6.55;;;22.30;71.30;;;;;;10789152;33;20055;-75
2022/10/03 11:28:16;;;;;;;8.57;5.22;;;22.60;70.60;;;;;;10789469;33;20027;-75
2022/10/03 11:34:37;;;;;;;8.35;6.18;;;22.80;70.20;;;;;;10792957;33;20393;-74
2022/10/03 11:40:55;;;;;;;7.72;6.03;;;22.70;70.00;;;;;;10789370;33;20016;-75
2022/10/03 11:47:08;;;;;;;15.93;8.43;;;22.70;69.90;;;;;;10789125;33;20400;-75
2022/10/03 11:53:32;;;;;;;6.97;4.47;;;22.80;69.70;;;;;;10793386;33;20016;-75
2022/10/03 12:00:19;;;;;;;13.07;10.45;;;22.80;69.90;;;;;;10791774;33;20397;-75
2022/10/03 12:12:55;;;;;;;13.43;10.38;;;22.80;70.00;;;;;;10680286;33;20033;-75
2022/10/03 12:19:32;;;;;;;18.05;13.38;;;22.80;70.20;;;;;;10676222;33;20037;-74
2022/10/03 12:25:39;;;;;;;10.73;7.60;;;22.70;70.40;;;;;;10678410;33;20160;-75
2022/10/03 12:31:56;;;;;;;10.38;7.50;;;22.60;70.60;;;;;;10680267;33;20029;-75
2022/10/03 12:38:10;;;;;;;12.07;9.95;;;22.60;70.20;;;;;;10694510;33;20055;-76
2022/10/03 12:44:30;;;;;;;10.32;8.57;;;22.70;70.40;;;;;;10794523;33;20060;-75
2022/10/03 12:50:47;;;;;;;11.43;8.60;;;22.70;70.10;;;;;;10799283;33;20067;-76
2022/10/03 12:57:32;;;;;;;10.93;6.23;;;22.80;70.00;;;;;;10799366;33;20439;-74
2022/10/03 13:04:22;;;;;;;6.95;5.20;;;22.90;70.10;;;;;;10798833;32;20008;-74
2022/10/03 13:10:46;;;;;;;11.43;6.87;;;22.90;70.00;;;;;;10717959;33;20033;-76
2022/10/03 13:17:19;;;;;;;7.97;6.85;;;22.80;69.90;;;;;;10717857;33;20413;-76
2022/10/03 13:23:56;;;;;;;8.30;6.00;;;22.80;69.90;;;;;;10721438;33;20438;-76
2022/10/03 13:30:23;;;;;;;7.97;6.15;;;22.80;69.90;;;;;;10709061;33;20096;-75
2022/10/03 13:37:11;;;;;;;7.15;5.40;;;22.80;69.90;;;;;;10705374;33;20110;-75
2022/10/03 13:43:22;;;;;;;11.12;8.10;;;22.80;69.80;;;;;;10746646;33;20032;-76
2022/10/03 13:50:00;;;;;;;12.18;7.43;;;22.90;69.90;;;;;;10793346;33;20029;-75
2022/10/03 13:56:13;;;;;;;;;;;23.00;69.70;;;;;;10794733;33;20016;-75
2022/10/03 14:02:40;;;;;;;10.98;8.05;;;22.80;69.80;;;;;;10797283;33;19928;-76
2022/10/03 14:08:53;;;;;;;10.95;7.53;;;22.80;70.10;;;;;;10783669;33;20087;-76
2022/10/03 14:15:12;;;;;;;14.63;11.82;;;22.80;70.10;;;;;;10799893;27;20044;-76
2022/10/03 14:21:33;;;;;;;;;;;22.90;69.90;;;;;;10795564;33;20028;-76
2022/10/03 14:27:54;;;;;;;13.18;10.15;;;23.00;69.60;;;;;;10792394;33;19943;-76
2022/10/03 14:34:04;;;;;;;11.98;10.38;;;23.20;70.00;;;;;;10791793;33;20029;-76
2022/10/03 14:40:16;;;;;;;13.38;7.60;;;23.30;69.50;;;;;;10831863;32;20036;-76
2022/10/03 14:46:26;;;;;;;9.50;7.10;;;23.30;69.20;;;;;;10832000;32;20400;-76
2022/10/03 14:53:10;;;;;;;14.25;9.98;;;23.30;69.30;;;;;;10831937;32;20020;-76
2022/10/03 14:59:19;;;;;;;7.75;5.70;;;23.30;69.10;;;;;;10831418;32;20046;-76
2022/10/03 15:05:35;;;;;;;7.35;4.35;;;23.30;69.10;;;;;;10859377;32;20032;-76
2022/10/03 15:11:46;;;;;;;9.00;6.12;;;23.30;69.10;;;;;;10868243;32;20023;-76
2022/10/03 15:17:52;;;;;;;5.75;4.05;;;23.60;68.40;;;;;;10868218;32;20012;-75
2022/10/03 15:24:22;;;;;;;7.60;5.45;;;23.70;68.10;;;;;;10867749;32;20359;-76
2022/10/03 15:30:32;;;;;;;12.65;6.03;;;23.80;67.70;;;;;;10854539;32;20046;-76
2022/10/03 15:36:40;;;;;;;8.40;5.75;;;23.80;67.30;;;;;;10867755;32;20019;-76
2022/10/03 15:49:35;;;;;;;6.00;4.35;;;23.60;68.00;;;;;;10867508;32;20343;-76
2022/10/03 15:56:08;;;;;;;7.53;5.45;;;23.00;69.10;;;;;;10867368;32;20024;-76
2022/10/03 16:02:20;;;;;;;7.22;4.50;;;22.70;69.90;;;;;;10847154;32;20054;-76
2022/10/03 16:08:27;;;;;;;7.37;4.22;;;22.50;70.40;;;;;;10810350;33;20475;-76
2022/10/03 16:14:40;;;;;;;11.48;4.25;;;22.30;70.70;;;;;;10792856;33;20020;-76
2022/10/03 16:20:56;;;;;;;5.12;3.42;;;22.20;71.00;;;;;;10818643;32;20028;-76
2022/10/03 16:27:07;;;;;;;6.87;4.47;;;22.10;71.20;;;;;;10809737;32;20333;-76
2022/10/03 16:33:09;;;;;;;6.28;3.75;;;21.90;71.60;;;;;;10802619;32;20321;-76
2022/10/03 16:39:20;;;;;;;10.88;4.43;;;21.90;71.80;;;;;;10787142;33;20043;-76
2022/10/03 16:45:39;;;;;;;7.82;3.75;;;21.80;71.90;;;;;;10800047;33;20039;-76
2022/10/03 16:52:18;;;;;;;7.00;3.78;;;21.80;72.10;;;;;;10800531;32;20070;-76
2022/10/03 16:58:51;;;;;;;6.97;4.87;;;21.70;72.20;;;;;;10759575;33;20021;-77
2022/10/03 17:05:04;;;;;;;8.38;5.30;;;21.60;72.50;;;;;;10753402;33;20417;-76
2022/10/03 17:11:07;;;;;;;7.95;4.82;;;21.50;72.70;;;;;;10758541;33;20017;-76
2022/10/03 17:17:13;;;;;;;6.78;5.10;;;21.50;72.90;;;;;;10754791;33;20029;-76
2022/10/03 17:23:36;;;;;;;6.43;4.22;;;21.40;72.90;;;;;;10757870;33;20046;-76
2022/10/03 17:29:48;;;;;;;6.90;3.45;;;21.40;73.10;;;;;;10765839;32;20023;-76
2022/10/03 17:36:23;;;;;;;8.95;5.10;;;21.30;73.30;;;;;;10835823;32;20016;-76
2022/10/03 17:42:31;;;;;;;10.75;3.78;;;21.30;73.40;;;;;;10831266;32;20028;-76
2022/10/03 17:48:48;;;;;;;5.87;4.50;;;21.30;73.50;;;;;;10834722;32;20028;-77
2022/10/03 17:54:56;;;;;;;4.95;3.35;;;21.30;73.60;;;;;;10830375;32;20052;-76
2022/10/03 18:01:13;;;;;;;4.65;3.53;;;21.30;73.70;;;;;;10834282;32;20062;-76
2022/10/03 18:07:19;;;;;;;4.50;3.30;;;21.30;73.80;;;;;;10832359;32;20435;-76
2022/10/03 18:13:27;;;;;;;6.00;3.75;;;21.20;73.90;;;;;;10816751;33;20329;-76
2022/10/03 18:19:44;;;;;;;10.10;4.87;;;21.10;73.90;;;;;;10832210;32;20024;-76
2022/10/03 18:25:57;;;;;;;6.35;4.72;;;21.10;74.10;;;;;;10833197;32;20151;-76
2022/10/03 18:32:24;;;;;;;7.12;4.20;;;21.00;74.30;;;;;;10816065;33;20302;-76
2022/10/03 18:38:28;;;;;;;7.30;4.03;;;20.90;74.30;;;;;;10832957;32;20028;-76
2022/10/03 18:44:32;;;;;;;6.43;4.60;;;20.90;74.40;;;;;;10831975;32;20024;-77
2022/10/03 18:50:47;;;;;;;6.05;4.62;;;20.80;74.60;;;;;;10832313;32;20058;-76
2022/10/03 18:57:07;;;;;;;7.07;3.58;;;20.70;74.80;;;;;;10829847;32;20028;-76
2022/10/03 19:03:16;;;;;;;6.65;4.12;;;20.70;74.80;;;;;;10814878;33;20035;-76
2022/10/03 19:09:24;;;;;;;5.37;3.95;;;20.60;74.90;;;;;;10827585;33;20032;-76
2022/10/03 19:15:44;;;;;;;5.10;3.53;;;20.60;75.00;;;;;;10829206;32;20306;-76
2022/10/03 19:21:48;;;;;;;7.53;4.72;;;20.50;75.30;;;;;;10831653;32;20020;-76
2022/10/03 19:27:56;;;;;;;7.30;4.50;;;20.40;75.30;;;;;;10831231;32;20397;-76
2022/10/03 19:34:03;;;;;;;6.80;4.45;;;20.40;75.40;;;;;;10826854;33;20329;-76
2022/10/03 19:40:35;;;;;;;5.90;4.35;;;20.40;75.70;;;;;;10826686;33;20054;-76
2022/10/03 19:47:04;;;;;;;6.93;4.95;;;20.30;76.00;;;;;;10702506;33;20024;-76
2022/10/03 19:53:31;;;;;;;8.40;5.55;;;20.30;76.00;;;;;;10716377;33;20036;-76
2022/10/03 19:59:43;;;;;;;9.73;5.30;;;20.20;76.30;;;;;;10713171;33;20068;-76
2022/10/03 20:06:13;;;;;;;6.68;4.70;;;20.20;76.50;;;;;;10716922;33;20063;-76
2022/10/03 20:12:45;;;;;;;7.87;5.68;;;20.10;76.70;;;;;;10712468;33;20033;-76
2022/10/03 20:18:53;;;;;;;6.65;5.15;;;20.10;76.70;;;;;;10727508;33;20058;-76
2022/10/03 20:24:55;;;;;;;12.20;6.50;;;20.10;77.00;;;;;;10817026;33;20016;-76
2022/10/03 20:31:02;;;;;;;11.15;7.28;;;20.00;77.20;;;;;;10830067;33;20008;-77
2022/10/03 20:37:39;;;;;;;7.80;5.53;;;20.10;77.10;;;;;;10828149;33;20082;-76
2022/10/03 20:44:11;;;;;;;10.13;6.05;;;20.10;77.20;;;;;;10829823;33;20017;-76
2022/10/03 20:50:28;;;;;;;8.27;6.05;;;20.00;77.10;;;;;;10829663;33;20090;-77
2022/10/03 20:57:00;;;;;;;10.45;7.35;;;20.00;77.20;;;;;;10825527;33;20344;-77
2022/10/03 21:03:11;;;;;;;10.75;6.43;;;20.00;77.50;;;;;;10825202;33;20028;-77
2022/10/03 21:09:20;;;;;;;9.43;7.93;;;20.00;77.60;;;;;;10836072;32;20423;-76
2022/10/03 21:15:45;;;;;;;;;;;19.90;77.50;;;;;;10832133;33;20039;-77
2022/10/03 21:21:53;;;;;;;11.30;7.00;;;19.90;77.60;;;;;;10814674;33;19932;-77
2022/10/03 21:27:57;;;;;;;11.20;6.80;;;19.80;78.00;;;;;;10835529;32;20028;-77
2022/10/03 21:34:17;;;;;;;13.73;7.32;;;19.80;78.10;;;;;;10835596;32;20008;-76
2022/10/03 21:40:58;;;;;;;10.45;7.75;;;19.70;78.10;;;;;;10835087;32;20313;-77
2022/10/03 21:47:23;;;;;;;13.00;7.85;;;19.70;78.40;;;;;;10835000;32;20047;-77
2022/10/03 21:53:46;;;;;;;12.10;7.85;;;19.70;78.50;;;;;;10834762;32;20047;-77
2022/10/03 22:00:27;;;;;;;10.02;7.78;;;19.70;78.60;;;;;;10834348;32;20035;-77
2022/10/03 22:07:15;;;;;;;11.60;8.60;;;19.60;78.60;;;;;;10834027;32;20040;-76
2022/10/03 22:13:22;;;;;;;9.75;7.32;;;19.60;78.50;;;;;;10838498;27;20352;-76
2022/10/03 22:19:30;;;;;;;13.23;8.30;;;19.50;78.70;;;;;;10828876;32;20059;-76
2022/10/03 22:25:38;;;;;;;11.55;9.20;;;19.50;78.70;;;;;;10833347;32;20047;-78
2022/10/03 22:31:53;;;;;;;9.23;6.73;;;19.40;78.80;;;;;;10832998;32;20029;-76
2022/10/03 22:37:56;;;;;;;10.18;8.02;;;19.40;78.70;;;;;;10832722;32;20408;-77
2022/10/03 22:44:00;;;;;;;11.93;9.07;;;19.40;78.80;;;;;;10832494;32;20027;-77
2022/10/03 22:50:09;;;;;;;14.43;10.43;;;19.40;79.10;;;;;;10832417;32;20105;-76
2022/10/03 22:56:29;;;;;;;;;;;19.40;79.00;;;;;;10832662;32;20032;-77
2022/10/03 23:02:44;;;;;;;14.43;9.82;;;19.30;79.10;;;;;;10832081;32;19924;-76
2022/10/03 23:09:20;;;;;;;13.38;10.43;;;19.30;79.20;;;;;;10831599;32;20027;-76
2022/10/03 23:15:23;;;;;;;14.35;11.35;;;19.30;79.50;;;;;;10828930;32;20032;-77
2022/10/03 23:21:26;;;;;;;12.90;9.93;;;19.30;79.60;;;;;;10831165;32;20043;-76
2022/10/03 23:27:46;;;;;;;11.93;10.18;;;19.30;79.70;;;;;;10826891;32;20032;-77
2022/10/03 23:33:49;;;;;;;15.77;12.75;;;19.30;79.60;;;;;;10826922;33;20028;-77
2022/10/03 23:39:53;;;;;;;13.57;10.57;;;19.30;79.70;;;;;;10831005;32;20103;-77
2022/10/03 23:46:07;;;;;;;10.75;9.65;;;19.30;79.80;;;;;;10830877;32;20019;-77
2022/10/03 23:52:21;;;;;;;12.88;11.12;;;19.10;79.90;;;;;;10830678;32;20082;-77
2022/10/03 23:58:35;;;;;;;16.27;13.73;;;19.10;79.80;;;;;;10830545;32;20100;-76
